Parrs Mill, Pennsylvania
Current Conditions -  °F | °C
As of 5:15 AM on Tuesday 27 Jan 2015 (Local Time) from KHZL Reporting Station
Overcast Overcast  
Wind Chill:   Ceiling: 900
Heat Index: 19°   Visibility: 10mi
Dew Point: 16°   Wind: 14mph
Humidity: 86%   Direction: 330°NNW
Pressure: 29.7"   Gusts: NA
Location:  40.8983°N, 76.4239°W
Report Text: KHZL 271015Z AUTO 33012KT 10SM OVC009 M07/M09 A2970 RMK AO2
Loading
Personal Weather Stations






























Interactive Weather Map New forecast layout! Learn more

10-Day Weather Forecast

Advertisements
Track Severe Weather on mobile